sensor_id;sensor_type;location;lat;lon;timestamp;pressure;altitude;pressure_sealevel;temperature;humidity
56400;BME280;42298;53.638;9.876;2023-04-23T00:02:01;100344.00;;;19.66;62.89
56400;BME280;42298;53.638;9.876;2023-04-23T00:04:27;100330.38;;;19.61;62.97
56400;BME280;42298;53.638;9.876;2023-04-23T00:06:53;100340.66;;;19.53;63.00
56400;BME280;42298;53.638;9.876;2023-04-23T00:09:22;100337.81;;;19.50;63.63
56400;BME280;42298;53.638;9.876;2023-04-23T00:11:48;100324.03;;;19.34;63.88
56400;BME280;42298;53.638;9.876;2023-04-23T00:14:13;100329.16;;;19.29;63.92
56400;BME280;42298;53.638;9.876;2023-04-23T00:16:39;100334.38;;;19.30;64.31
56400;BME280;42298;53.638;9.876;2023-04-23T00:19:05;100325.13;;;19.26;64.26
56400;BME280;42298;53.638;9.876;2023-04-23T00:21:30;100321.50;;;19.26;64.90
56400;BME280;42298;53.638;9.876;2023-04-23T00:23:56;100319.75;;;19.14;64.98
56400;BME280;42298;53.638;9.876;2023-04-23T00:26:21;100317.28;;;19.09;65.65
56400;BME280;42298;53.638;9.876;2023-04-23T00:28:46;100317.34;;;19.13;65.42
56400;BME280;42298;53.638;9.876;2023-04-23T00:31:12;100320.16;;;19.16;65.33
56400;BME280;42298;53.638;9.876;2023-04-23T00:33:37;100316.38;;;19.02;66.02
56400;BME280;42298;53.638;9.876;2023-04-23T00:36:03;100325.44;;;18.95;66.52
56400;BME280;42298;53.638;9.876;2023-04-23T00:38:28;100327.81;;;18.93;66.50
56400;BME280;42298;53.638;9.876;2023-04-23T00:40:53;100315.38;;;18.87;66.81
56400;BME280;42298;53.638;9.876;2023-04-23T00:43:19;100305.44;;;18.89;66.37
56400;BME280;42298;53.638;9.876;2023-04-23T00:45:44;100310.16;;;18.85;66.71
56400;BME280;42298;53.638;9.876;2023-04-23T00:48:10;100317.47;;;18.71;67.36
56400;BME280;42298;53.638;9.876;2023-04-23T00:50:36;100321.09;;;18.71;67.82
56400;BME280;42298;53.638;9.876;2023-04-23T00:53:01;100306.22;;;18.64;68.01
56400;BME280;42298;53.638;9.876;2023-04-23T00:55:27;100306.66;;;18.66;68.15
56400;BME280;42298;53.638;9.876;2023-04-23T00:57:53;100301.75;;;18.59;67.93
56400;BME280;42298;53.638;9.876;2023-04-23T01:00:19;100310.50;;;18.58;68.22
56400;BME280;42298;53.638;9.876;2023-04-23T01:02:46;100307.28;;;18.56;68.09
56400;BME280;42298;53.638;9.876;2023-04-23T01:05:13;100293.41;;;18.37;68.50
56400;BME280;42298;53.638;9.876;2023-04-23T01:07:40;100307.41;;;18.40;68.99
56400;BME280;42298;53.638;9.876;2023-04-23T01:10:08;100290.09;;;18.31;68.83
56400;BME280;42298;53.638;9.876;2023-04-23T01:12:33;100284.16;;;18.33;69.17
56400;BME280;42298;53.638;9.876;2023-04-23T01:14:59;100276.84;;;18.25;69.20
56400;BME280;42298;53.638;9.876;2023-04-23T01:17:24;100292.72;;;18.21;69.40
56400;BME280;42298;53.638;9.876;2023-04-23T01:19:51;100283.50;;;18.17;69.78
56400;BME280;42298;53.638;9.876;2023-04-23T01:22:16;100292.34;;;18.22;69.80
56400;BME280;42298;53.638;9.876;2023-04-23T01:24:42;100281.63;;;18.24;69.90
56400;BME280;42298;53.638;9.876;2023-04-23T01:27:08;100289.09;;;18.20;69.99
56400;BME280;42298;53.638;9.876;2023-04-23T01:29:34;100284.78;;;18.23;69.61
56400;BME280;42298;53.638;9.876;2023-04-23T01:32:01;100283.50;;;18.17;69.94
56400;BME280;42298;53.638;9.876;2023-04-23T01:34:29;100292.34;;;18.22;69.94
56400;BME280;42298;53.638;9.876;2023-04-23T01:36:54;100297.16;;;18.03;70.23
56400;BME280;42298;53.638;9.876;2023-04-23T01:39:20;100304.34;;;18.04;70.52
56400;BME280;42298;53.638;9.876;2023-04-23T01:41:46;100310.66;;;18.01;71.11
56400;BME280;42298;53.638;9.876;2023-04-23T01:44:12;100353.16;;;18.17;69.11
56400;BME280;42298;53.638;9.876;2023-04-23T01:46:37;100356.06;;;17.63;66.43
56400;BME280;42298;53.638;9.876;2023-04-23T01:49:02;100361.09;;;17.23;66.47
56400;BME280;42298;53.638;9.876;2023-04-23T01:51:29;100356.53;;;16.80;67.25
56400;BME280;42298;53.638;9.876;2023-04-23T01:53:54;100350.44;;;16.59;67.01
56400;BME280;42298;53.638;9.876;2023-04-23T01:56:24;100355.16;;;16.28;68.08
56400;BME280;42298;53.638;9.876;2023-04-23T01:58:50;100365.34;;;16.08;68.00
56400;BME280;42298;53.638;9.876;2023-04-23T02:01:15;100366.66;;;15.99;68.57
56400;BME280;42298;53.638;9.876;2023-04-23T02:03:41;100367.28;;;15.92;69.06
56400;BME280;42298;53.638;9.876;2023-04-23T02:06:06;100365.66;;;15.91;69.34
56400;BME280;42298;53.638;9.876;2023-04-23T02:08:32;100373.78;;;15.84;68.76
56400;BME280;42298;53.638;9.876;2023-04-23T02:10:57;100368.28;;;15.72;69.39
56400;BME280;42298;53.638;9.876;2023-04-23T02:13:22;100386.81;;;15.68;69.03
56400;BME280;42298;53.638;9.876;2023-04-23T02:15:48;100392.28;;;15.53;69.39
56400;BME280;42298;53.638;9.876;2023-04-23T02:18:13;100383.41;;;15.47;69.83
56400;BME280;42298;53.638;9.876;2023-04-23T02:20:38;100397.44;;;15.66;69.60
56400;BME280;42298;53.638;9.876;2023-04-23T02:23:07;100389.09;;;15.39;69.36
56400;BME280;42298;53.638;9.876;2023-04-23T02:25:32;100397.28;;;15.47;69.69
56400;BME280;42298;53.638;9.876;2023-04-23T02:27:58;100388.94;;;15.35;69.45
56400;BME280;42298;53.638;9.876;2023-04-23T02:30:26;100397.50;;;15.30;69.47
56400;BME280;42298;53.638;9.876;2023-04-23T02:32:51;100389.66;;;15.20;70.16
56400;BME280;42298;53.638;9.876;2023-04-23T02:35:17;100386.91;;;15.20;69.73
56400;BME280;42298;53.638;9.876;2023-04-23T02:37:45;100397.66;;;15.21;70.04
56400;BME280;42298;53.638;9.876;2023-04-23T02:40:10;100400.44;;;15.09;70.01
56400;BME280;42298;53.638;9.876;2023-04-23T02:42:36;100386.69;;;15.01;70.24
56400;BME280;42298;53.638;9.876;2023-04-23T02:45:01;100392.81;;;14.94;69.95
56400;BME280;42298;53.638;9.876;2023-04-23T02:47:27;100395.38;;;14.87;70.53
56400;BME280;42298;53.638;9.876;2023-04-23T02:49:52;100396.16;;;14.76;71.25
56400;BME280;42298;53.638;9.876;2023-04-23T02:52:18;100392.94;;;14.86;71.08
56400;BME280;42298;53.638;9.876;2023-04-23T02:54:43;100403.44;;;14.92;70.46
56400;BME280;42298;53.638;9.876;2023-04-23T02:57:08;100398.91;;;15.00;70.60
56400;BME280;42298;53.638;9.876;2023-04-23T02:59:33;100401.34;;;15.01;70.27
56400;BME280;42298;53.638;9.876;2023-04-23T03:01:59;100390.84;;;14.83;70.64
56400;BME280;42298;53.638;9.876;2023-04-23T03:04:25;100402.38;;;14.85;70.43
56400;BME280;42298;53.638;9.876;2023-04-23T03:06:50;100413.94;;;14.87;70.72
56400;BME280;42298;53.638;9.876;2023-04-23T03:09:15;100406.19;;;14.80;70.32
56400;BME280;42298;53.638;9.876;2023-04-23T03:11:40;100405.13;;;14.61;70.41
56400;BME280;42298;53.638;9.876;2023-04-23T03:14:06;100402.63;;;14.68;69.81
56400;BME280;42298;53.638;9.876;2023-04-23T03:16:31;100401.81;;;14.67;69.42
56400;BME280;42298;53.638;9.876;2023-04-23T03:18:57;100415.78;;;14.59;70.00
56400;BME280;42298;53.638;9.876;2023-04-23T03:21:22;100411.72;;;14.56;70.17
56400;BME280;42298;53.638;9.876;2023-04-23T03:23:48;100413.56;;;14.52;70.73
56400;BME280;42298;53.638;9.876;2023-04-23T03:26:13;100421.41;;;14.50;70.64
56400;BME280;42298;53.638;9.876;2023-04-23T03:28:38;100415.53;;;14.52;71.10
56400;BME280;42298;53.638;9.876;2023-04-23T03:31:05;100409.50;;;14.38;70.17
56400;BME280;42298;53.638;9.876;2023-04-23T03:33:31;100415.16;;;14.41;70.34
56400;BME280;42298;53.638;9.876;2023-04-23T03:35:57;100422.91;;;14.48;70.84
56400;BME280;42298;53.638;9.876;2023-04-23T03:38:22;100426.03;;;14.46;70.17
56400;BME280;42298;53.638;9.876;2023-04-23T03:40:48;100427.63;;;14.47;70.09
56400;BME280;42298;53.638;9.876;2023-04-23T03:43:13;100421.75;;;14.49;69.60
56400;BME280;42298;53.638;9.876;2023-04-23T03:45:38;100426.22;;;14.41;70.59
56400;BME280;42298;53.638;9.876;2023-04-23T03:48:04;100416.56;;;14.35;70.08
56400;BME280;42298;53.638;9.876;2023-04-23T03:50:29;100421.28;;;14.35;69.73
56400;BME280;42298;53.638;9.876;2023-04-23T03:52:58;100418.72;;;14.30;70.54
56400;BME280;42298;53.638;9.876;2023-04-23T03:55:23;100423.22;;;14.34;70.14
56400;BME280;42298;53.638;9.876;2023-04-23T03:57:49;100411.56;;;14.29;70.60
56400;BME280;42298;53.638;9.876;2023-04-23T04:00:14;100421.22;;;14.23;70.03
56400;BME280;42298;53.638;9.876;2023-04-23T04:02:39;100412.25;;;14.26;69.97
56400;BME280;42298;53.638;9.876;2023-04-23T04:05:05;100410.41;;;14.30;69.84
56400;BME280;42298;53.638;9.876;2023-04-23T04:07:31;100421.50;;;14.42;69.44
56400;BME280;42298;53.638;9.876;2023-04-23T04:09:57;100425.66;;;14.36;69.77
56400;BME280;42298;53.638;9.876;2023-04-23T04:12:23;100428.91;;;14.38;69.57
56400;BME280;42298;53.638;9.876;2023-04-23T04:14:48;100431.09;;;14.32;70.00
56400;BME280;42298;53.638;9.876;2023-04-23T04:17:14;100434.78;;;14.36;70.05
56400;BME280;42298;53.638;9.876;2023-04-23T04:19:41;100436.72;;;14.36;69.67
56400;BME280;42298;53.638;9.876;2023-04-23T04:22:07;100438.47;;;14.40;70.34
56400;BME280;42298;53.638;9.876;2023-04-23T04:24:32;100449.00;;;14.47;69.98
56400;BME280;42298;53.638;9.876;2023-04-23T04:26:58;100435.69;;;14.40;70.31
56400;BME280;42298;53.638;9.876;2023-04-23T04:29:27;100437.94;;;14.47;69.96
56400;BME280;42298;53.638;9.876;2023-04-23T04:31:53;100457.56;;;14.54;70.36
56400;BME280;42298;53.638;9.876;2023-04-23T04:34:19;100454.56;;;14.47;69.58
56400;BME280;42298;53.638;9.876;2023-04-23T04:36:44;100450.72;;;14.39;69.79
56400;BME280;42298;53.638;9.876;2023-04-23T04:39:09;100450.72;;;14.39;70.04
56400;BME280;42298;53.638;9.876;2023-04-23T04:41:37;100453.72;;;14.46;69.95
56400;BME280;42298;53.638;9.876;2023-04-23T04:44:03;100445.03;;;14.36;69.97
56400;BME280;42298;53.638;9.876;2023-04-23T04:46:28;100449.78;;;14.35;70.15
56400;BME280;42298;53.638;9.876;2023-04-23T04:48:53;100450.13;;;14.34;69.61
56400;BME280;42298;53.638;9.876;2023-04-23T04:51:19;100451.84;;;14.38;69.72
56400;BME280;42298;53.638;9.876;2023-04-23T04:53:45;100457.50;;;14.30;70.21
56400;BME280;42298;53.638;9.876;2023-04-23T04:56:10;100455.13;;;14.20;70.35
56400;BME280;42298;53.638;9.876;2023-04-23T04:58:36;100461.81;;;14.19;69.99
56400;BME280;42298;53.638;9.876;2023-04-23T05:01:01;100457.66;;;14.13;69.69
56400;BME280;42298;53.638;9.876;2023-04-23T05:03:26;100469.31;;;14.18;70.07
56400;BME280;42298;53.638;9.876;2023-04-23T05:05:52;100485.75;;;14.23;69.98
56400;BME280;42298;53.638;9.876;2023-04-23T05:08:23;100484.44;;;14.21;69.72
56400;BME280;42298;53.638;9.876;2023-04-23T05:10:48;100484.66;;;14.16;70.21
56400;BME280;42298;53.638;9.876;2023-04-23T05:13:15;100483.00;;;14.23;70.17
56400;BME280;42298;53.638;9.876;2023-04-23T05:15:40;100498.34;;;14.33;69.65
56400;BME280;42298;53.638;9.876;2023-04-23T05:18:08;100500.19;;;14.29;69.53
56400;BME280;42298;53.638;9.876;2023-04-23T05:20:33;100495.00;;;14.27;69.41
56400;BME280;42298;53.638;9.876;2023-04-23T05:22:59;100492.09;;;14.24;69.42
56400;BME280;42298;53.638;9.876;2023-04-23T05:25:26;100496.94;;;14.27;69.36
56400;BME280;42298;53.638;9.876;2023-04-23T05:27:51;100485.09;;;14.18;69.18
56400;BME280;42298;53.638;9.876;2023-04-23T05:30:17;100503.03;;;14.20;69.61
56400;BME280;42298;53.638;9.876;2023-04-23T05:32:42;100501.47;;;14.11;69.08
56400;BME280;42298;53.638;9.876;2023-04-23T05:35:08;100509.44;;;14.12;69.79
56400;BME280;42298;53.638;9.876;2023-04-23T05:37:34;100504.25;;;14.11;68.77
56400;BME280;42298;53.638;9.876;2023-04-23T05:39:59;100504.00;;;14.24;68.99
56400;BME280;42298;53.638;9.876;2023-04-23T05:42:26;100503.16;;;14.24;69.10
56400;BME280;42298;53.638;9.876;2023-04-23T05:44:52;100498.09;;;14.26;68.44
56400;BME280;42298;53.638;9.876;2023-04-23T05:47:17;100504.25;;;14.31;69.04
56400;BME280;42298;53.638;9.876;2023-04-23T05:49:42;100512.22;;;14.33;68.94
56400;BME280;42298;53.638;9.876;2023-04-23T05:52:07;100508.16;;;14.30;68.59
56400;BME280;42298;53.638;9.876;2023-04-23T05:54:33;100507.84;;;14.32;68.41
56400;BME280;42298;53.638;9.876;2023-04-23T05:56:58;100515.47;;;14.35;67.17
56400;BME280;42298;53.638;9.876;2023-04-23T05:59:24;100521.00;;;14.35;68.45
56400;BME280;42298;53.638;9.876;2023-04-23T06:01:49;100522.16;;;14.34;67.84
56400;BME280;42298;53.638;9.876;2023-04-23T06:04:15;100520.88;;;14.31;68.32
56400;BME280;42298;53.638;9.876;2023-04-23T06:06:41;100518.72;;;14.37;67.60
56400;BME280;42298;53.638;9.876;2023-04-23T06:09:07;100521.59;;;14.40;67.39
56400;BME280;42298;53.638;9.876;2023-04-23T06:11:32;100523.34;;;14.45;67.32
56400;BME280;42298;53.638;9.876;2023-04-23T06:14:00;100527.03;;;14.49;67.07
56400;BME280;42298;53.638;9.876;2023-04-23T06:16:25;100521.50;;;14.49;67.19
56400;BME280;42298;53.638;9.876;2023-04-23T06:18:51;100513.66;;;14.51;67.73
56400;BME280;42298;53.638;9.876;2023-04-23T06:21:16;100508.25;;;14.54;67.43
56400;BME280;42298;53.638;9.876;2023-04-23T06:23:41;100507.34;;;14.62;67.35
56400;BME280;42298;53.638;9.876;2023-04-23T06:26:07;100510.84;;;14.71;67.72
56400;BME280;42298;53.638;9.876;2023-04-23T06:28:32;100507.66;;;14.81;66.80
56400;BME280;42298;53.638;9.876;2023-04-23T06:30:57;100509.84;;;14.88;66.69
56400;BME280;42298;53.638;9.876;2023-04-23T06:33:23;100511.44;;;14.77;65.47
56400;BME280;42298;53.638;9.876;2023-04-23T06:35:48;100516.19;;;14.88;67.56
56400;BME280;42298;53.638;9.876;2023-04-23T06:38:14;100508.00;;;14.92;65.39
56400;BME280;42298;53.638;9.876;2023-04-23T06:40:40;100508.94;;;14.96;66.19
56400;BME280;42298;53.638;9.876;2023-04-23T06:43:05;100509.41;;;15.10;66.53
56400;BME280;42298;53.638;9.876;2023-04-23T06:45:32;100508.84;;;15.28;65.24
56400;BME280;42298;53.638;9.876;2023-04-23T06:47:58;100500.09;;;15.39;65.27
56400;BME280;42298;53.638;9.876;2023-04-23T06:50:24;100505.75;;;15.42;64.76
56400;BME280;42298;53.638;9.876;2023-04-23T06:52:49;100506.22;;;15.44;64.35
56400;BME280;42298;53.638;9.876;2023-04-23T06:55:14;100518.91;;;15.57;64.10
56400;BME280;42298;53.638;9.876;2023-04-23T06:57:40;100511.28;;;15.54;63.08
56400;BME280;42298;53.638;9.876;2023-04-23T07:00:06;100505.16;;;15.61;62.70
56400;BME280;42298;53.638;9.876;2023-04-23T07:02:33;100518.09;;;15.69;63.18
56400;BME280;42298;53.638;9.876;2023-04-23T07:04:58;100518.69;;;15.62;63.10
56400;BME280;42298;53.638;9.876;2023-04-23T07:07:24;100514.75;;;15.51;62.16
56400;BME280;42298;53.638;9.876;2023-04-23T07:09:50;100525.16;;;15.66;63.33
56400;BME280;42298;53.638;9.876;2023-04-23T07:12:15;100515.56;;;15.76;63.01
56400;BME280;42298;53.638;9.876;2023-04-23T07:14:42;100529.28;;;15.84;60.84
56400;BME280;42298;53.638;9.876;2023-04-23T07:17:07;100515.31;;;15.69;62.26
56400;BME280;42298;53.638;9.876;2023-04-23T07:19:35;100519.41;;;15.59;61.89
56400;BME280;42298;53.638;9.876;2023-04-23T07:22:02;100522.50;;;15.58;62.39
56400;BME280;42298;53.638;9.876;2023-04-23T07:24:28;100523.78;;;15.60;62.00
56400;BME280;42298;53.638;9.876;2023-04-23T07:26:53;100527.72;;;15.71;60.74
56400;BME280;42298;53.638;9.876;2023-04-23T07:29:19;100519.16;;;15.52;59.56
56400;BME280;42298;53.638;9.876;2023-04-23T07:31:44;100523.66;;;15.45;60.27
56400;BME280;42298;53.638;9.876;2023-04-23T07:34:10;100518.56;;;15.59;61.32
56400;BME280;42298;53.638;9.876;2023-04-23T07:36:36;100517.03;;;15.73;60.85
56400;BME280;42298;53.638;9.876;2023-04-23T07:39:01;100516.47;;;15.68;59.85
56400;BME280;42298;53.638;9.876;2023-04-23T07:41:26;100508.47;;;15.78;60.57
56400;BME280;42298;53.638;9.876;2023-04-23T07:43:52;100521.84;;;16.00;60.07
56400;BME280;42298;53.638;9.876;2023-04-23T07:46:17;100512.16;;;15.82;58.90
56400;BME280;42298;53.638;9.876;2023-04-23T07:48:44;100511.03;;;15.83;59.26
56400;BME280;42298;53.638;9.876;2023-04-23T07:51:09;100506.72;;;15.86;60.53
56400;BME280;42298;53.638;9.876;2023-04-23T07:53:35;100505.47;;;15.83;60.90
56400;BME280;42298;53.638;9.876;2023-04-23T07:56:00;100513.94;;;16.14;60.04
56400;BME280;42298;53.638;9.876;2023-04-23T07:58:26;100512.78;;;16.43;60.19
56400;BME280;42298;53.638;9.876;2023-04-23T08:00:51;100514.72;;;16.54;57.07
56400;BME280;42298;53.638;9.876;2023-04-23T08:03:17;100512.13;;;16.46;57.70
56400;BME280;42298;53.638;9.876;2023-04-23T08:05:42;100506.03;;;16.56;58.21
56400;BME280;42298;53.638;9.876;2023-04-23T08:08:09;100501.94;;;16.65;57.57
56400;BME280;42298;53.638;9.876;2023-04-23T08:10:35;100506.50;;;16.73;56.59
56400;BME280;42298;53.638;9.876;2023-04-23T08:13:01;100509.44;;;16.92;57.14
56400;BME280;42298;53.638;9.876;2023-04-23T08:15:26;100502.22;;;16.91;57.18
56400;BME280;42298;53.638;9.876;2023-04-23T09:08:44;100483.78;;;20.28;45.80
56400;BME280;42298;53.638;9.876;2023-04-23T09:11:09;100484.81;;;20.13;45.85
56400;BME280;42298;53.638;9.876;2023-04-23T09:13:36;100485.81;;;20.02;46.98
56400;BME280;42298;53.638;9.876;2023-04-23T09:16:01;100472.13;;;19.93;47.14
56400;BME280;42298;53.638;9.876;2023-04-23T09:18:28;100471.53;;;20.10;46.32
56400;BME280;42298;53.638;9.876;2023-04-23T09:20:54;100470.19;;;20.27;45.36
56400;BME280;42298;53.638;9.876;2023-04-23T09:23:20;100474.44;;;20.47;46.61
56400;BME280;42298;53.638;9.876;2023-04-23T09:25:46;100471.34;;;20.22;44.92
56400;BME280;42298;53.638;9.876;2023-04-23T09:28:14;100457.06;;;20.01;44.04
56400;BME280;42298;53.638;9.876;2023-04-23T09:30:44;100459.69;;;19.87;44.94
56400;BME280;42298;53.638;9.876;2023-04-23T09:33:11;100462.94;;;20.22;46.41
56400;BME280;42298;53.638;9.876;2023-04-23T09:35:36;100434.97;;;20.22;44.45
56400;BME280;42298;53.638;9.876;2023-04-23T09:38:03;100460.78;;;20.78;45.61
56400;BME280;42298;53.638;9.876;2023-04-23T09:40:32;100458.75;;;21.16;43.57
56400;BME280;42298;53.638;9.876;2023-04-23T09:42:57;100457.78;;;20.98;43.09
56400;BME280;42298;53.638;9.876;2023-04-23T09:45:23;100445.09;;;21.11;41.81
56400;BME280;42298;53.638;9.876;2023-04-23T09:47:57;100465.53;;;21.69;41.63
56400;BME280;42298;53.638;9.876;2023-04-23T09:50:35;100448.41;;;21.81;41.84
56400;BME280;42298;53.638;9.876;2023-04-23T09:53:03;100452.16;;;22.06;41.60
56400;BME280;42298;53.638;9.876;2023-04-23T09:55:33;100452.25;;;22.27;41.98
56400;BME280;42298;53.638;9.876;2023-04-23T09:58:04;100443.94;;;21.73;41.50
56400;BME280;42298;53.638;9.876;2023-04-23T10:00:34;100468.88;;;21.85;41.26
56400;BME280;42298;53.638;9.876;2023-04-23T10:03:00;100441.69;;;21.92;42.16
56400;BME280;42298;53.638;9.876;2023-04-23T10:05:27;100447.53;;;22.52;42.79
56400;BME280;42298;53.638;9.876;2023-04-23T10:07:54;100449.63;;;22.87;41.42
56400;BME280;42298;53.638;9.876;2023-04-23T10:10:21;100448.06;;;23.31;41.04
56400;BME280;42298;53.638;9.876;2023-04-23T10:12:47;100446.03;;;23.18;39.40
56400;BME280;42298;53.638;9.876;2023-04-23T10:15:13;100442.41;;;22.89;39.79
56400;BME280;42298;53.638;9.876;2023-04-23T10:17:39;100439.16;;;22.56;40.54
56400;BME280;42298;53.638;9.876;2023-04-23T10:20:06;100435.50;;;22.51;41.06
56400;BME280;42298;53.638;9.876;2023-04-23T10:22:33;100455.19;;;22.59;41.11
56400;BME280;42298;53.638;9.876;2023-04-23T10:25:08;100433.97;;;22.82;40.61
56400;BME280;42298;53.638;9.876;2023-04-23T10:27:38;100449.25;;;23.20;38.37
56400;BME280;42298;53.638;9.876;2023-04-23T10:30:08;100423.53;;;23.18;38.20
56400;BME280;42298;53.638;9.876;2023-04-23T10:32:35;100444.38;;;22.89;37.60
56400;BME280;42298;53.638;9.876;2023-04-23T10:35:01;100440.38;;;22.93;39.90
56400;BME280;42298;53.638;9.876;2023-04-23T10:37:27;100448.03;;;23.38;40.19
56400;BME280;42298;53.638;9.876;2023-04-23T10:39:54;100421.94;;;23.55;36.93
56400;BME280;42298;53.638;9.876;2023-04-23T10:42:20;100435.97;;;23.62;38.67
56400;BME280;42298;53.638;9.876;2023-04-23T10:44:46;100414.72;;;23.26;39.16
56400;BME280;42298;53.638;9.876;2023-04-23T10:47:14;100415.91;;;23.15;37.91
56400;BME280;42298;53.638;9.876;2023-04-23T10:49:40;100411.50;;;22.82;39.09
56400;BME280;42298;53.638;9.876;2023-04-23T10:52:11;100411.47;;;22.61;39.61
56400;BME280;42298;53.638;9.876;2023-04-23T10:54:39;100421.09;;;22.57;39.25
56400;BME280;42298;53.638;9.876;2023-04-23T10:57:07;100404.25;;;22.57;38.61
56400;BME280;42298;53.638;9.876;2023-04-23T10:59:34;100419.50;;;22.66;38.67
56400;BME280;42298;53.638;9.876;2023-04-23T11:02:07;100414.31;;;23.10;39.29
56400;BME280;42298;53.638;9.876;2023-04-23T11:04:34;100397.44;;;23.38;38.79
56400;BME280;42298;53.638;9.876;2023-04-23T11:07:10;100402.22;;;23.62;37.77
56400;BME280;42298;53.638;9.876;2023-04-23T11:09:40;100417.06;;;23.73;37.53
56400;BME280;42298;53.638;9.876;2023-04-23T11:12:09;100413.84;;;23.75;38.27
56400;BME280;42298;53.638;9.876;2023-04-23T11:14:55;100417.03;;;23.84;37.58
56400;BME280;42298;53.638;9.876;2023-04-23T11:20:10;100419.88;;;23.73;36.43
56400;BME280;42298;53.638;9.876;2023-04-23T11:22:42;100406.28;;;23.44;36.92
56400;BME280;42298;53.638;9.876;2023-04-23T11:25:22;100420.34;;;23.30;36.92
56400;BME280;42298;53.638;9.876;2023-04-23T11:27:49;100383.44;;;22.93;37.91
56400;BME280;42298;53.638;9.876;2023-04-23T11:30:20;100389.81;;;23.18;37.03
56400;BME280;42298;53.638;9.876;2023-04-23T11:32:49;100404.28;;;23.34;38.34
56400;BME280;42298;53.638;9.876;2023-04-23T11:35:19;100413.50;;;23.48;36.12
56400;BME280;42298;53.638;9.876;2023-04-23T11:37:47;100389.81;;;23.49;37.37
56400;BME280;42298;53.638;9.876;2023-04-23T11:40:14;100404.19;;;23.72;37.01
56400;BME280;42298;53.638;9.876;2023-04-23T11:42:49;100392.50;;;23.91;37.06
56400;BME280;42298;53.638;9.876;2023-04-23T11:45:28;100387.63;;;24.02;36.89
56400;BME280;42298;53.638;9.876;2023-04-23T11:47:55;100385.59;;;24.10;36.25
56400;BME280;42298;53.638;9.876;2023-04-23T11:52:50;100391.25;;;24.03;36.12
56400;BME280;42298;53.638;9.876;2023-04-23T11:55:17;100363.53;;;23.94;36.34
56400;BME280;42298;53.638;9.876;2023-04-23T11:57:47;100373.91;;;24.11;38.21
56400;BME280;42298;53.638;9.876;2023-04-23T12:02:51;100366.28;;;24.15;37.32
56400;BME280;42298;53.638;9.876;2023-04-23T12:05:21;100375.03;;;24.28;37.29
56400;BME280;42298;53.638;9.876;2023-04-23T12:07:50;100370.28;;;24.21;36.78
56400;BME280;42298;53.638;9.876;2023-04-23T12:10:19;100368.00;;;23.88;35.47
56400;BME280;42298;53.638;9.876;2023-04-23T12:12:48;100371.66;;;23.71;36.58
56400;BME280;42298;53.638;9.876;2023-04-23T12:15:13;100368.81;;;23.85;36.75
56400;BME280;42298;53.638;9.876;2023-04-23T12:17:39;100362.34;;;23.95;36.49
56400;BME280;42298;53.638;9.876;2023-04-23T12:20:05;100353.94;;;23.85;36.19
56400;BME280;42298;53.638;9.876;2023-04-23T12:22:33;100357.56;;;23.78;36.47
56400;BME280;42298;53.638;9.876;2023-04-23T12:25:05;100358.78;;;23.77;35.79
56400;BME280;42298;53.638;9.876;2023-04-23T12:27:38;100355.59;;;23.65;35.13
56400;BME280;42298;53.638;9.876;2023-04-23T12:30:04;100342.81;;;23.57;36.88
56400;BME280;42298;53.638;9.876;2023-04-23T12:32:32;100341.50;;;23.82;36.55
56400;BME280;42298;53.638;9.876;2023-04-23T12:34:59;100340.75;;;23.64;35.93
56400;BME280;42298;53.638;9.876;2023-04-23T12:37:28;100332.31;;;23.64;35.43
56400;BME280;42298;53.638;9.876;2023-04-23T12:39:55;100336.00;;;23.47;36.73
56400;BME280;42298;53.638;9.876;2023-04-23T12:42:23;100357.34;;;23.27;36.63
56400;BME280;42298;53.638;9.876;2023-04-23T12:44:49;100357.31;;;23.13;37.17
56400;BME280;42298;53.638;9.876;2023-04-23T12:47:16;100344.47;;;23.05;36.61
56400;BME280;42298;53.638;9.876;2023-04-23T12:49:44;100346.09;;;23.13;36.80
56400;BME280;42298;53.638;9.876;2023-04-23T12:52:10;100350.09;;;22.95;36.67
56400;BME280;42298;53.638;9.876;2023-04-23T12:54:38;100346.09;;;23.06;37.57
56400;BME280;42298;53.638;9.876;2023-04-23T12:57:07;100350.91;;;23.27;37.61
56400;BME280;42298;53.638;9.876;2023-04-23T12:59:36;100340.47;;;22.99;35.86
56400;BME280;42298;53.638;9.876;2023-04-23T13:02:03;100344.88;;;23.04;35.88
56400;BME280;42298;53.638;9.876;2023-04-23T13:04:33;100344.47;;;23.16;36.17
56400;BME280;42298;53.638;9.876;2023-04-23T13:06:59;100344.09;;;23.10;36.04
56400;BME280;42298;53.638;9.876;2023-04-23T13:09:25;100345.28;;;23.27;38.51
56400;BME280;42298;53.638;9.876;2023-04-23T13:11:52;100344.00;;;23.49;38.19
56400;BME280;42298;53.638;9.876;2023-04-23T13:14:17;100335.97;;;23.58;35.83
56400;BME280;42298;53.638;9.876;2023-04-23T13:16:43;100337.63;;;23.48;35.79
56400;BME280;42298;53.638;9.876;2023-04-23T13:19:08;100326.78;;;23.40;36.83
56400;BME280;42298;53.638;9.876;2023-04-23T13:21:34;100315.97;;;23.31;35.73
56400;BME280;42298;53.638;9.876;2023-04-23T13:23:59;100327.19;;;23.42;36.32
56400;BME280;42298;53.638;9.876;2023-04-23T13:26:26;100336.44;;;23.39;35.50
56400;BME280;42298;53.638;9.876;2023-04-23T13:28:54;100320.44;;;22.97;36.31
56400;BME280;42298;53.638;9.876;2023-04-23T13:31:19;100319.19;;;23.05;35.85
56400;BME280;42298;53.638;9.876;2023-04-23T13:33:45;100316.00;;;23.03;36.89
56400;BME280;42298;53.638;9.876;2023-04-23T13:36:10;100312.78;;;23.12;36.97
56400;BME280;42298;53.638;9.876;2023-04-23T13:38:36;100316.00;;;23.10;36.79
56400;BME280;42298;53.638;9.876;2023-04-23T13:41:01;100303.94;;;23.13;37.42
56400;BME280;42298;53.638;9.876;2023-04-23T13:43:26;100284.63;;;23.43;37.12
56400;BME280;42298;53.638;9.876;2023-04-23T13:45:53;100284.00;;;23.87;35.83